Time;durP1;ratioP1;P1;durP2;ratioP2;P2;SDS_P1;SDS_P2;PMS_P1;PMS_P2;Temp;Humidity;BMP_temperature;BMP_pressure;BME280_temperature;BME280_humidity;BME280_pressure;Samples;Min_cycle;Max_cycle;Signal;HPM_P1;HPM_P2
2021/03/21 00:02:00;;;;;;;7.45;4.88;;;3.00;67.80;;;;;;5012847;28;20045;-71
2021/03/21 00:04:27;;;;;;;8.52;4.20;;;3.00;67.50;;;;;;5014774;28;20046;-71
2021/03/21 00:06:53;;;;;;;7.80;4.80;;;3.10;67.40;;;;;;5015537;28;20026;-71
2021/03/21 00:09:19;;;;;;;10.35;4.28;;;3.10;67.20;;;;;;5016088;28;20037;-71
2021/03/21 00:11:45;;;;;;;8.52;4.95;;;3.10;66.40;;;;;;5015395;28;20470;-71
2021/03/21 00:14:12;;;;;;;10.13;5.18;;;3.20;66.10;;;;;;5015739;28;20034;-71
2021/03/21 00:16:38;;;;;;;10.80;5.32;;;3.20;64.70;;;;;;5015687;28;20053;-71
2021/03/21 00:19:05;;;;;;;13.77;5.32;;;3.20;64.80;;;;;;5026868;28;20494;-71
2021/03/21 00:21:32;;;;;;;10.23;6.68;;;3.30;64.50;;;;;;5021857;28;20045;-71
2021/03/21 00:23:58;;;;;;;11.35;6.30;;;3.30;64.90;;;;;;5030898;28;20025;-70
2021/03/21 00:26:24;;;;;;;11.85;6.13;;;3.30;64.90;;;;;;5022533;28;20049;-71
2021/03/21 00:28:51;;;;;;;11.80;5.85;;;3.30;65.40;;;;;;5032433;28;20037;-71
2021/03/21 00:31:18;;;;;;;13.95;7.15;;;3.30;66.00;;;;;;5024207;28;20053;-71
2021/03/21 00:33:45;;;;;;;16.17;8.23;;;3.30;67.40;;;;;;5024187;28;20034;-71
2021/03/21 00:36:13;;;;;;;15.85;8.00;;;3.30;67.60;;;;;;5024448;28;20036;-71
2021/03/21 00:38:42;;;;;;;11.93;6.20;;;3.20;67.50;;;;;;5028032;28;20038;-71
2021/03/21 00:41:11;;;;;;;19.35;8.70;;;3.20;68.00;;;;;;5024287;28;20037;-71
2021/03/21 00:43:38;;;;;;;15.57;7.65;;;3.10;68.00;;;;;;5033259;28;20037;-71
2021/03/21 00:46:05;;;;;;;14.57;7.18;;;3.10;68.40;;;;;;5033037;28;20047;-71
2021/03/21 00:48:39;;;;;;;7.75;4.88;;;3.10;69.30;;;;;;5015764;28;20034;-71
2021/03/21 00:51:07;;;;;;;8.20;4.47;;;3.10;68.20;;;;;;5014836;28;20042;-71
2021/03/21 00:53:34;;;;;;;8.98;4.53;;;3.10;68.60;;;;;;5014902;28;20030;-71
2021/03/21 00:56:00;;;;;;;7.55;4.25;;;3.10;68.40;;;;;;5034269;28;20042;-71
2021/03/21 00:58:27;;;;;;;9.55;4.55;;;3.10;68.30;;;;;;5016386;28;20030;-71
2021/03/21 01:00:56;;;;;;;8.00;3.92;;;3.10;67.20;;;;;;5018124;28;20046;-71
2021/03/21 01:03:23;;;;;;;10.52;4.72;;;3.20;66.70;;;;;;5021000;28;20037;-71
2021/03/21 01:05:59;;;;;;;8.68;4.68;;;3.30;65.80;;;;;;5028616;28;20472;-71
2021/03/21 01:08:31;;;;;;;7.00;3.83;;;3.30;66.30;;;;;;5027791;28;20042;-71
2021/03/21 01:11:19;;;;;;;7.10;4.13;;;3.30;65.40;;;;;;5016006;28;20049;-71
2021/03/21 01:13:45;;;;;;;9.93;4.68;;;3.30;64.90;;;;;;5015603;28;20050;-71
2021/03/21 01:16:21;;;;;;;6.90;4.07;;;3.30;64.90;;;;;;5032989;28;20053;-71
2021/03/21 01:18:49;;;;;;;8.45;4.43;;;3.30;65.10;;;;;;5032802;28;20513;-71
2021/03/21 01:21:15;;;;;;;8.15;4.25;;;3.30;64.90;;;;;;5024514;28;20045;-71
2021/03/21 01:23:43;;;;;;;11.20;6.40;;;3.30;66.90;;;;;;5028141;28;20045;-71
2021/03/21 01:26:15;;;;;;;9.85;4.32;;;3.30;67.70;;;;;;5014842;28;20045;-71
2021/03/21 01:28:42;;;;;;;14.38;6.63;;;3.20;68.10;;;;;;5014236;28;20034;-71
2021/03/21 01:31:12;;;;;;;10.10;5.03;;;3.20;68.80;;;;;;5014946;28;20050;-71
2021/03/21 01:33:38;;;;;;;12.68;6.45;;;3.20;69.40;;;;;;5014420;28;20046;-71
2021/03/21 01:36:10;;;;;;;15.73;8.05;;;3.10;69.60;;;;;;5014259;28;20034;-71
2021/03/21 01:38:36;;;;;;;23.75;10.93;;;3.10;70.10;;;;;;5015507;28;20041;-73
2021/03/21 01:41:05;;;;;;;28.20;12.95;;;3.00;71.00;;;;;;5033559;28;20045;-72
2021/03/21 01:43:38;;;;;;;24.65;11.63;;;3.00;71.60;;;;;;5028883;28;20042;-71
2021/03/21 01:46:06;;;;;;;22.33;9.13;;;2.90;71.80;;;;;;5012753;28;20053;-71
2021/03/21 01:48:32;;;;;;;10.02;5.97;;;2.90;72.20;;;;;;5022332;28;20404;-71
2021/03/21 01:51:02;;;;;;;10.32;4.60;;;2.90;72.70;;;;;;5031353;28;20375;-71
2021/03/21 01:53:31;;;;;;;10.70;4.43;;;3.00;71.80;;;;;;5032169;28;20045;-71
2021/03/21 01:55:57;;;;;;;8.40;4.18;;;3.10;68.80;;;;;;5029768;28;20268;-71
2021/03/21 01:58:28;;;;;;;8.00;4.43;;;3.10;68.00;;;;;;5013999;28;20053;-71
2021/03/21 02:01:01;;;;;;;7.95;3.95;;;3.20;67.40;;;;;;5013107;28;20050;-73
2021/03/21 02:03:27;;;;;;;6.07;3.50;;;3.20;66.60;;;;;;5031122;28;20651;-71
2021/03/21 02:06:20;;;;;;;8.23;4.15;;;3.20;65.90;;;;;;5013390;28;20478;-71
2021/03/21 02:08:54;;;;;;;5.85;3.03;;;3.30;65.40;;;;;;5013372;28;20034;-71
2021/03/21 02:11:44;;;;;;;7.35;3.90;;;3.30;65.30;;;;;;5027092;28;20491;-71
2021/03/21 02:14:30;;;;;;;7.68;3.80;;;3.30;65.00;;;;;;5013679;28;20467;-71
2021/03/21 02:17:23;;;;;;;8.30;3.13;;;3.30;65.40;;;;;;5013043;28;20068;-71
2021/03/21 02:20:24;;;;;;;6.88;3.92;;;3.30;64.90;;;;;;5016843;28;20041;-71
2021/03/21 02:22:56;;;;;;;;;;;3.30;64.50;;;;;;5020426;28;20075;-71
2021/03/21 02:26:00;;;;;;;10.07;3.70;;;3.30;64.70;;;;;;5018555;28;19909;-71
2021/03/21 02:28:35;;;;;;;6.30;3.25;;;3.30;64.60;;;;;;5012802;28;20034;-71
2021/03/21 02:31:15;;;;;;;6.15;3.50;;;3.30;64.60;;;;;;5013343;28;20058;-71
2021/03/21 02:34:00;;;;;;;5.97;2.47;;;3.30;64.00;;;;;;5028424;28;20487;-72
2021/03/21 02:36:46;;;;;;;6.45;2.97;;;3.30;64.40;;;;;;5026735;28;20029;-71
2021/03/21 02:39:35;;;;;;;6.85;3.55;;;3.30;63.70;;;;;;5022456;28;20479;-71
2021/03/21 02:42:11;;;;;;;6.65;3.08;;;3.30;63.90;;;;;;5013159;28;20046;-71
2021/03/21 02:45:14;;;;;;;10.13;4.03;;;3.30;64.30;;;;;;5013235;28;20384;-71
2021/03/21 02:47:42;;;;;;;7.55;3.50;;;3.30;64.80;;;;;;5003447;28;20061;-71
2021/03/21 02:50:19;;;;;;;7.40;3.45;;;3.30;65.20;;;;;;5016949;28;20399;-71
2021/03/21 02:52:49;;;;;;;6.20;3.72;;;3.30;65.30;;;;;;5015204;28;20389;-71
2021/03/21 02:55:19;;;;;;;7.57;3.42;;;3.30;66.00;;;;;;5020028;28;20054;-71
2021/03/21 02:58:10;;;;;;;6.63;3.67;;;3.30;66.70;;;;;;5012486;28;20041;-72
2021/03/21 03:00:46;;;;;;;6.70;3.20;;;3.30;66.60;;;;;;5011129;28;20058;-72
2021/03/21 03:03:16;;;;;;;9.00;3.58;;;3.30;66.50;;;;;;5031584;28;20037;-73
2021/03/21 03:05:47;;;;;;;6.83;4.20;;;3.30;66.20;;;;;;5011721;28;20049;-72
2021/03/21 03:08:16;;;;;;;7.20;3.78;;;3.30;66.60;;;;;;5013398;28;20042;-71
2021/03/21 03:10:53;;;;;;;7.03;3.58;;;3.30;66.30;;;;;;5018822;28;20391;-71
2021/03/21 03:13:42;;;;;;;6.68;3.30;;;3.30;66.40;;;;;;5031264;28;20037;-72
2021/03/21 03:16:14;;;;;;;6.45;3.63;;;3.20;66.50;;;;;;5023209;28;20045;-71
2021/03/21 03:18:46;;;;;;;6.90;3.42;;;3.30;66.90;;;;;;5020613;28;20042;-73
2021/03/21 03:21:21;;;;;;;6.72;3.90;;;3.30;66.90;;;;;;5031366;28;20038;-72
2021/03/21 03:24:08;;;;;;;7.95;3.40;;;3.30;66.80;;;;;;5019668;28;20484;-71
2021/03/21 03:26:44;;;;;;;6.90;3.70;;;3.30;67.60;;;;;;5013377;28;20050;-71
2021/03/21 03:29:25;;;;;;;6.75;3.35;;;3.30;67.30;;;;;;5029603;28;20034;-72
2021/03/21 03:31:56;;;;;;;5.20;2.88;;;3.30;67.30;;;;;;5015117;28;20057;-72
2021/03/21 03:34:24;;;;;;;6.80;3.42;;;3.30;67.40;;;;;;5013066;28;20038;-72
2021/03/21 03:36:52;;;;;;;5.93;3.22;;;3.30;67.70;;;;;;5012271;28;20053;-72
2021/03/21 03:39:18;;;;;;;7.82;3.17;;;3.30;67.50;;;;;;5014877;28;20364;-72
2021/03/21 03:42:00;;;;;;;5.78;3.22;;;3.30;67.40;;;;;;5016732;28;20065;-72
2021/03/21 03:44:38;;;;;;;5.63;3.28;;;3.30;67.20;;;;;;5014684;28;20391;-71
2021/03/21 03:47:23;;;;;;;8.82;3.42;;;3.40;67.60;;;;;;5016368;28;20049;-72
2021/03/21 03:50:16;;;;;;;6.72;3.28;;;3.30;67.40;;;;;;5016080;28;20064;-72
2021/03/21 03:52:53;;;;;;;6.30;3.15;;;3.30;67.20;;;;;;5018916;28;20479;-72
2021/03/21 03:56:02;;;;;;;6.50;2.92;;;3.40;67.40;;;;;;5027361;28;20038;-72
2021/03/21 03:58:53;;;;;;;5.97;3.20;;;3.40;67.30;;;;;;5024298;28;20037;-72
2021/03/21 04:01:44;;;;;;;8.25;3.42;;;3.40;67.70;;;;;;5016787;28;20066;-71
2021/03/21 04:04:28;;;;;;;5.82;3.72;;;3.40;68.50;;;;;;5015638;28;20029;-71
2021/03/21 04:07:03;;;;;;;6.50;3.50;;;3.30;67.70;;;;;;5027395;28;20036;-71
2021/03/21 04:09:34;;;;;;;7.20;4.00;;;3.40;67.10;;;;;;5019376;28;20049;-71
2021/03/21 04:12:07;;;;;;;;;;;3.40;66.90;;;;;;5015669;28;20030;-71
2021/03/21 04:14:50;;;;;;;6.43;2.97;;;3.40;67.10;;;;;;5033081;28;19909;-71
2021/03/21 04:17:37;;;;;;;7.00;3.97;;;3.40;66.70;;;;;;5018003;28;20038;-71
2021/03/21 04:20:10;;;;;;;6.78;3.17;;;3.40;66.10;;;;;;5015398;28;20041;-71
2021/03/21 04:22:50;;;;;;;5.38;3.15;;;3.30;71.10;;;;;;5015612;28;20048;-71
2021/03/21 04:25:24;;;;;;;7.63;3.80;;;3.20;72.40;;;;;;5015730;28;20045;-71
2021/03/21 04:28:03;;;;;;;5.28;3.60;;;3.20;71.80;;;;;;5015515;28;20029;-71
2021/03/21 04:30:43;;;;;;;7.90;4.03;;;3.20;72.30;;;;;;5015754;28;20038;-71
2021/03/21 04:33:14;;;;;;;9.50;5.72;;;3.20;72.70;;;;;;5015517;28;20034;-71
2021/03/21 04:35:47;;;;;;;7.40;4.22;;;3.30;72.70;;;;;;5015468;28;20482;-71
2021/03/21 04:38:20;;;;;;;8.23;4.90;;;3.20;74.00;;;;;;5015739;28;20037;-72
2021/03/21 04:40:47;;;;;;;14.75;6.80;;;3.20;74.00;;;;;;5015344;28;20061;-72
2021/03/21 04:43:26;;;;;;;9.15;4.50;;;3.10;74.10;;;;;;5015266;28;20045;-71
2021/03/21 04:45:58;;;;;;;8.85;3.67;;;3.10;74.20;;;;;;5023660;28;20526;-72
2021/03/21 04:48:25;;;;;;;5.50;2.88;;;3.10;73.70;;;;;;5015411;28;20045;-71
2021/03/21 04:51:11;;;;;;;8.57;3.25;;;3.00;73.40;;;;;;5014405;28;20049;-71
2021/03/21 04:53:43;;;;;;;7.75;3.35;;;3.00;73.40;;;;;;5022822;28;20370;-71
2021/03/21 04:56:34;;;;;;;7.78;3.60;;;3.00;73.50;;;;;;5015330;28;20044;-72
2021/03/21 04:59:16;;;;;;;7.33;3.10;;;3.00;73.40;;;;;;5014185;28;20057;-71
2021/03/21 05:01:58;;;;;;;7.05;3.83;;;3.00;73.20;;;;;;5030994;28;20300;-72
2021/03/21 05:04:31;;;;;;;6.57;3.90;;;3.10;72.90;;;;;;5030629;28;20506;-72
2021/03/21 05:07:15;;;;;;;7.95;3.83;;;3.10;73.10;;;;;;5028769;28;20033;-71
2021/03/21 05:09:45;;;;;;;7.35;5.15;;;3.10;73.10;;;;;;5033865;28;20038;-72
2021/03/21 05:12:21;;;;;;;6.30;3.35;;;3.20;73.30;;;;;;5029777;28;20034;-72
2021/03/21 05:14:52;;;;;;;7.13;4.30;;;3.20;73.50;;;;;;5014229;28;20033;-72
2021/03/21 05:17:39;;;;;;;6.75;4.22;;;3.20;74.10;;;;;;5028162;28;20033;-71
2021/03/21 05:20:17;;;;;;;7.63;4.28;;;3.20;74.20;;;;;;5032562;28;20363;-71
2021/03/21 05:23:03;;;;;;;6.95;3.95;;;3.20;74.80;;;;;;5014498;28;20038;-72
2021/03/21 05:25:36;;;;;;;10.07;4.32;;;3.10;74.90;;;;;;5014797;28;20471;-71
2021/03/21 05:28:30;;;;;;;9.88;3.78;;;3.10;75.40;;;;;;5013941;28;20037;-72
2021/03/21 05:30:56;;;;;;;6.63;3.40;;;3.10;75.50;;;;;;5013887;28;20038;-72
2021/03/21 05:33:22;;;;;;;6.28;4.25;;;3.20;75.10;;;;;;5014487;28;20550;-72
2021/03/21 05:35:53;;;;;;;10.32;3.00;;;3.20;72.40;;;;;;5029712;28;20455;-72
2021/03/21 05:38:26;;;;;;;4.38;2.83;;;3.30;71.80;;;;;;5014118;28;20375;-72
2021/03/21 05:41:16;;;;;;;6.93;3.50;;;3.30;72.40;;;;;;5013812;28;20045;-72
2021/03/21 05:44:10;;;;;;;6.93;3.17;;;3.30;72.20;;;;;;5026252;28;20029;-72
2021/03/21 05:46:50;;;;;;;5.43;3.22;;;3.30;72.20;;;;;;5032941;28;20053;-70
2021/03/21 05:49:16;;;;;;;7.73;4.03;;;3.30;72.20;;;;;;5023685;28;20037;-70
2021/03/21 05:52:01;;;;;;;7.82;3.97;;;3.40;72.00;;;;;;5013832;28;20050;-71
2021/03/21 05:54:52;;;;;;;5.38;3.25;;;3.40;71.30;;;;;;5024505;28;20390;-71
2021/03/21 05:57:54;;;;;;;11.98;5.65;;;3.40;71.80;;;;;;5015760;28;20479;-71
2021/03/21 06:00:54;;;;;;;9.85;6.70;;;3.50;72.40;;;;;;5014093;28;20030;-71
2021/03/21 06:03:58;;;;;;;10.25;5.35;;;3.40;73.70;;;;;;5023906;28;20042;-71
2021/03/21 06:06:51;;;;;;;7.50;4.50;;;3.40;73.00;;;;;;5013551;28;20030;-71
2021/03/21 06:09:29;;;;;;;7.75;4.50;;;3.40;73.10;;;;;;5013705;28;20041;-72
2021/03/21 06:12:19;;;;;;;8.45;4.43;;;3.40;72.30;;;;;;5013252;28;20040;-72
2021/03/21 06:15:07;;;;;;;4.95;3.42;;;3.40;72.40;;;;;;5013609;28;20030;-72
2021/03/21 06:17:49;;;;;;;7.78;4.22;;;3.50;72.50;;;;;;5013510;28;20022;-72
2021/03/21 06:20:45;;;;;;;9.98;6.03;;;3.50;71.10;;;;;;5023469;28;20378;-72
2021/03/21 06:23:14;;;;;;;23.08;8.77;;;3.50;72.20;;;;;;5018635;28;20128;-73
2021/03/21 06:25:52;;;;;;;20.30;7.78;;;3.50;71.50;;;;;;5012555;28;20034;-72
2021/03/21 06:28:55;;;;;;;275.27;126.22;;;3.60;71.20;;;;;;5020944;28;20391;-72
2021/03/21 06:31:36;;;;;;;31.00;17.20;;;3.60;71.40;;;;;;5031019;28;20050;-72
2021/03/21 06:34:26;;;;;;;18.42;8.30;;;3.90;71.00;;;;;;5031241;28;20040;-72
2021/03/21 06:37:11;;;;;;;18.38;9.43;;;4.00;70.00;;;;;;5022826;28;20053;-72
2021/03/21 06:39:49;;;;;;;119.43;48.88;;;4.10;70.20;;;;;;5013170;28;20038;-72
2021/03/21 06:42:24;;;;;;;26.15;12.95;;;4.30;69.90;;;;;;5013053;28;20042;-71
2021/03/21 06:45:21;;;;;;;11.10;5.50;;;4.40;69.40;;;;;;5012962;28;20037;-71
2021/03/21 06:48:06;;;;;;;9.13;4.63;;;4.50;68.90;;;;;;5015867;28;20042;-72
2021/03/21 06:50:36;;;;;;;102.53;42.67;;;4.70;68.10;;;;;;5014588;28;20041;-71
2021/03/21 06:53:26;;;;;;;101.03;49.58;;;4.80;67.60;;;;;;5012676;28;20045;-71
2021/03/21 06:55:56;;;;;;;19.67;11.75;;;5.00;67.10;;;;;;5011212;28;20045;-72
2021/03/21 06:58:44;;;;;;;15.07;8.15;;;4.70;66.70;;;;;;5013084;28;20029;-71
2021/03/21 07:01:19;;;;;;;29.58;14.15;;;4.70;67.80;;;;;;5014870;28;20065;-72
2021/03/21 07:04:10;;;;;;;8.43;4.60;;;4.70;67.50;;;;;;5022533;28;20048;-72
2021/03/21 07:07:07;;;;;;;6.25;4.07;;;4.60;67.80;;;;;;5012721;28;20482;-72
2021/03/21 07:09:49;;;;;;;27.52;13.05;;;4.60;67.60;;;;;;5012645;28;20053;-73
2021/03/21 07:12:15;;;;;;;11.40;6.85;;;4.60;68.00;;;;;;5018501;28;20037;-73
2021/03/21 07:15:23;;;;;;;8.07;4.97;;;4.60;68.40;;;;;;5026627;28;20025;-73
2021/03/21 07:18:17;;;;;;;14.40;8.80;;;4.60;67.90;;;;;;5017940;28;20038;-74
2021/03/21 07:21:21;;;;;;;10.20;6.25;;;4.70;67.70;;;;;;5012790;28;20379;-74
2021/03/21 07:24:11;;;;;;;8.68;5.60;;;4.60;67.70;;;;;;5012187;28;20066;-74
2021/03/21 07:27:16;;;;;;;8.00;4.72;;;4.60;67.40;;;;;;5012851;28;20030;-73
2021/03/21 07:29:53;;;;;;;6.18;3.75;;;4.60;67.50;;;;;;5012325;28;20467;-73
2021/03/21 07:32:50;;;;;;;8.68;5.43;;;4.70;67.30;;;;;;5021319;28;20053;-74
2021/03/21 07:35:41;;;;;;;96.13;40.30;;;4.70;67.80;;;;;;5020736;28;20071;-73
2021/03/21 07:38:35;;;;;;;17.25;8.75;;;4.70;67.80;;;;;;5012375;28;20041;-73
2021/03/21 07:41:06;;;;;;;21.63;11.93;;;4.80;67.60;;;;;;5013278;28;20403;-73
2021/03/21 07:43:38;;;;;;;;;;;4.90;68.60;;;;;;5031422;28;20052;-74
2021/03/21 07:46:36;;;;;;;34.78;17.98;;;4.90;68.20;;;;;;5015856;28;19916;-73
2021/03/21 07:49:11;;;;;;;11.85;7.00;;;5.00;69.10;;;;;;5012963;28;20044;-74
2021/03/21 07:51:52;;;;;;;12.43;7.35;;;5.10;67.40;;;;;;5016519;28;20056;-74
2021/03/21 07:54:37;;;;;;;9.95;5.85;;;5.00;66.50;;;;;;5028254;28;20362;-74
2021/03/21 07:57:31;;;;;;;89.53;44.42;;;4.80;66.10;;;;;;5012053;28;20475;-74
2021/03/21 08:00:01;;;;;;;340.85;191.68;;;4.70;66.70;;;;;;5023164;28;20049;-74
2021/03/21 08:02:28;;;;;;;55.33;32.67;;;4.70;66.70;;;;;;5026440;28;20054;-74
2021/03/21 08:05:02;;;;;;;167.50;85.15;;;4.70;67.50;;;;;;5029597;28;20037;-74
2021/03/21 08:07:34;;;;;;;166.65;85.88;;;4.70;68.40;;;;;;5011848;28;20034;-74
2021/03/21 08:10:12;;;;;;;49.15;25.88;;;4.70;69.10;;;;;;5011389;28;20033;-74
2021/03/21 08:12:45;;;;;;;14.30;9.25;;;4.80;69.50;;;;;;5012235;28;20033;-74
2021/03/21 08:15:17;;;;;;;7.70;5.03;;;4.70;70.00;;;;;;5024822;28;20048;-74
2021/03/21 08:17:56;;;;;;;6.95;4.03;;;4.80;71.10;;;;;;5012659;28;20053;-73
2021/03/21 08:20:29;;;;;;;7.70;4.05;;;4.80;70.00;;;;;;5012101;28;20030;-74
2021/03/21 08:23:21;;;;;;;4.93;3.50;;;4.80;68.50;;;;;;5009467;28;20042;-74
2021/03/21 08:25:49;;;;;;;6.28;3.50;;;4.80;69.10;;;;;;5012624;28;20387;-73
2021/03/21 08:28:18;;;;;;;93.72;45.78;;;4.90;70.00;;;;;;5033722;28;20391;-74
2021/03/21 08:30:55;;;;;;;22.08;12.52;;;4.90;72.20;;;;;;5034228;28;20041;-75
2021/03/21 08:33:37;;;;;;;7.82;5.05;;;4.90;72.60;;;;;;5018957;28;20041;-74
2021/03/21 08:36:22;;;;;;;51.90;24.85;;;4.90;72.20;;;;;;5027264;28;20026;-74
2021/03/21 08:39:18;;;;;;;9.95;5.43;;;4.90;71.50;;;;;;5024292;28;20033;-75
2021/03/21 08:41:59;;;;;;;8.75;5.03;;;5.00;72.50;;;;;;5047781;28;20049;-74
2021/03/21 08:44:31;;;;;;;11.65;5.78;;;5.10;73.00;;;;;;5014974;28;20092;-74
2021/03/21 08:46:58;;;;;;;25.20;12.43;;;5.10;75.20;;;;;;5034313;28;20156;-74
2021/03/21 08:49:33;;;;;;;20.08;10.27;;;5.10;75.00;;;;;;5018098;28;20045;-74
2021/03/21 08:51:59;;;;;;;94.32;38.47;;;5.00;73.80;;;;;;5014805;28;20383;-74
2021/03/21 08:54:29;;;;;;;24.40;13.70;;;5.10;75.50;;;;;;5027112;28;20037;-74
2021/03/21 08:57:07;;;;;;;312.20;138.45;;;5.20;75.60;;;;;;5024412;28;20041;-74
2021/03/21 08:59:39;;;;;;;89.57;43.28;;;5.30;76.60;;;;;;5015384;28;20041;-74
2021/03/21 09:02:11;;;;;;;48.63;25.35;;;5.40;75.30;;;;;;5014485;28;20057;-73
2021/03/21 09:04:43;;;;;;;73.25;34.92;;;5.40;76.90;;;;;;5025867;28;20391;-73
2021/03/21 09:07:24;;;;;;;15.82;9.77;;;5.40;76.20;;;;;;5028727;28;20045;-73
2021/03/21 09:10:25;;;;;;;18.50;11.70;;;5.30;75.50;;;;;;5026805;28;20041;-73
2021/03/21 09:13:17;;;;;;;12.27;8.20;;;5.40;79.50;;;;;;5023534;28;20356;-73
2021/03/21 09:15:58;;;;;;;;;;;5.50;79.80;;;;;;5016519;28;20379;-73
2021/03/21 09:18:29;;;;;;;9.02;5.72;;;5.60;79.20;;;;;;5028790;28;19913;-73
2021/03/21 09:21:20;;;;;;;11.05;6.60;;;5.60;76.60;;;;;;5014230;28;20030;-73
2021/03/21 09:24:02;;;;;;;10.25;5.65;;;5.70;78.60;;;;;;5027518;28;20046;-74
2021/03/21 09:26:31;;;;;;;9.57;5.38;;;5.80;77.10;;;;;;5024530;28;20463;-73
2021/03/21 09:29:20;;;;;;;7.40;5.43;;;5.90;76.50;;;;;;5024242;28;20033;-73
2021/03/21 09:31:49;;;;;;;8.48;5.43;;;6.00;75.20;;;;;;5028892;28;20054;-75
2021/03/21 09:34:28;;;;;;;8.38;5.13;;;6.00;76.20;;;;;;5031792;28;20040;-73
2021/03/21 09:37:07;;;;;;;8.38;5.00;;;6.10;76.50;;;;;;5015105;28;20034;-73
2021/03/21 09:39:40;;;;;;;13.40;7.65;;;6.10;77.50;;;;;;5022965;28;20042;-74
2021/03/21 09:42:11;;;;;;;9.43;6.10;;;6.10;78.20;;;;;;5013601;28;20261;-77
2021/03/21 09:44:45;;;;;;;10.93;5.60;;;6.20;77.00;;;;;;5030525;28;20462;-78
2021/03/21 09:47:51;;;;;;;11.50;5.93;;;6.30;76.60;;;;;;5020167;28;20029;-76
2021/03/21 09:50:40;;;;;;;8.32;5.40;;;6.40;76.30;;;;;;5025228;28;20045;-77
2021/03/21 09:53:28;;;;;;;7.53;4.63;;;6.40;76.20;;;;;;5019274;28;20049;-77
2021/03/21 09:55:57;;;;;;;8.73;5.20;;;6.60;76.30;;;;;;5023643;28;20037;-78
2021/03/21 09:58:38;;;;;;;11.63;6.18;;;6.70;75.50;;;;;;5019752;28;20033;-74
2021/03/21 10:01:22;;;;;;;;;;;6.80;76.40;;;;;;5014655;28;20056;-73
2021/03/21 10:04:29;;;;;;;7.63;5.25;;;7.00;77.50;;;;;;5013682;28;20402;-74
2021/03/21 10:07:00;;;;;;;8.40;5.10;;;7.10;75.70;;;;;;5011577;28;20046;-73
2021/03/21 10:09:29;;;;;;;;;;;7.20;75.80;;;;;;5013884;28;20388;-73
2021/03/21 10:12:05;;;;;;;8.57;5.80;;;7.30;75.60;;;;;;5015937;28;19913;-73
2021/03/21 10:14:31;;;;;;;8.63;5.35;;;7.30;76.30;;;;;;5018256;28;20037;-73
2021/03/21 10:17:19;;;;;;;9.90;6.43;;;7.60;76.00;;;;;;5024318;28;20371;-73
2021/03/21 10:19:45;;;;;;;7.63;5.25;;;7.70;74.30;;;;;;5015611;28;20411;-73
2021/03/21 10:22:17;;;;;;;7.55;5.32;;;7.80;74.80;;;;;;5012718;28;20038;-73
2021/03/21 10:24:45;;;;;;;8.88;5.90;;;7.90;75.30;;;;;;5012765;28;20034;-73
2021/03/21 10:27:15;;;;;;;7.70;5.43;;;7.80;75.80;;;;;;5012730;28;20034;-73
2021/03/21 10:29:42;;;;;;;17.13;9.93;;;7.80;77.50;;;;;;5013412;28;20041;-73
2021/03/21 10:32:45;;;;;;;7.85;4.40;;;7.90;79.20;;;;;;5012735;28;20053;-73
2021/03/21 10:35:32;;;;;;;5.50;3.10;;;7.90;79.30;;;;;;5008750;28;20042;-73
2021/03/21 10:38:05;;;;;;;5.20;3.20;;;7.80;82.60;;;;;;5012480;28;20049;-74
2021/03/21 10:40:31;;;;;;;4.63;3.03;;;7.80;84.00;;;;;;5013274;28;20037;-73
2021/03/21 10:43:08;;;;;;;4.55;2.80;;;7.90;87.10;;;;;;5012903;28;20041;-73
2021/03/21 10:45:34;;;;;;;4.28;2.80;;;7.90;88.50;;;;;;5013145;28;20042;-73
2021/03/21 10:48:08;;;;;;;4.60;1.92;;;8.00;87.90;;;;;;5012555;28;20041;-73
2021/03/21 10:51:02;;;;;;;3.88;2.22;;;7.80;85.00;;;;;;5013024;28;20092;-74
2021/03/21 10:53:35;;;;;;;4.10;1.83;;;7.70;85.20;;;;;;5012922;28;20398;-71
2021/03/21 10:56:18;;;;;;;3.38;1.67;;;7.70;86.80;;;;;;5012474;28;20033;-73
2021/03/21 10:59:10;;;;;;;3.85;2.38;;;7.60;88.00;;;;;;5013350;28;20033;-73
2021/03/21 11:01:40;;;;;;;;;;;7.80;90.80;;;;;;5021836;28;20506;-72
2021/03/21 11:04:25;;;;;;;4.15;2.78;;;7.80;92.00;;;;;;5022925;28;19914;-72
2021/03/21 11:07:14;;;;;;;4.57;2.88;;;7.70;92.70;;;;;;5020609;28;20375;-73
2021/03/21 11:10:00;;;;;;;6.65;2.90;;;7.70;92.90;;;;;;5025383;28;20038;-72
2021/03/21 11:12:36;;;;;;;6.25;3.33;;;7.70;94.00;;;;;;5028060;28;20025;-73
2021/03/21 11:15:44;;;;;;;4.88;2.92;;;7.70;95.50;;;;;;5020470;28;20032;-73
2021/03/21 11:18:26;;;;;;;4.57;2.83;;;7.50;95.10;;;;;;5007212;28;20037;-73
2021/03/21 11:21:11;;;;;;;5.55;3.47;;;7.40;95.50;;;;;;5030708;28;20391;-72
2021/03/21 11:23:49;;;;;;;6.07;2.85;;;7.50;97.10;;;;;;5012761;28;20395;-72
2021/03/21 11:26:28;;;;;;;3.92;2.55;;;7.60;95.80;;;;;;5013781;28;20513;-73
2021/03/21 11:29:04;;;;;;;5.70;3.25;;;7.50;95.60;;;;;;5026611;28;20026;-73
2021/03/21 11:31:43;;;;;;;4.78;2.83;;;7.40;94.80;;;;;;5012494;28;20049;-73
2021/03/21 11:34:24;;;;;;;5.10;3.40;;;7.40;94.50;;;;;;5023270;28;20053;-72
2021/03/21 11:37:05;;;;;;;;;;;7.40;93.90;;;;;;5015834;28;20030;-73
2021/03/21 11:39:47;;;;;;;4.93;2.92;;;7.40;94.10;;;;;;5028277;28;19910;-73
2021/03/21 11:42:22;;;;;;;4.85;3.25;;;7.40;93.70;;;;;;5012984;28;20049;-74
2021/03/21 11:44:52;;;;;;;6.20;3.28;;;7.40;92.90;;;;;;5012121;28;20030;-73
2021/03/21 11:47:28;;;;;;;5.70;3.65;;;7.30;92.40;;;;;;5013145;28;20034;-72
2021/03/21 11:49:57;;;;;;;5.72;3.50;;;7.40;93.00;;;;;;5012599;28;20054;-73
2021/03/21 11:52:24;;;;;;;4.90;3.42;;;7.60;92.20;;;;;;5020840;28;20045;-73
2021/03/21 11:54:52;;;;;;;6.68;4.22;;;7.60;91.50;;;;;;5012133;28;20057;-74
2021/03/21 11:57:33;;;;;;;5.68;3.88;;;7.70;91.20;;;;;;5012318;28;20034;-75
2021/03/21 12:00:10;;;;;;;5.40;3.47;;;8.00;90.90;;;;;;5013093;28;20033;-74
2021/03/21 12:02:58;;;;;;;5.18;3.22;;;8.10;90.50;;;;;;5035555;28;20125;-74
2021/03/21 12:05:34;;;;;;;5.63;3.67;;;8.20;90.20;;;;;;5016393;28;20057;-74
2021/03/21 12:08:23;;;;;;;5.47;3.72;;;8.40;89.20;;;;;;5019013;28;20026;-75
2021/03/21 12:10:52;;;;;;;4.63;3.28;;;8.40;86.40;;;;;;5023652;28;20049;-75
2021/03/21 12:13:36;;;;;;;3.75;2.75;;;8.40;86.50;;;;;;5029112;28;20029;-75
2021/03/21 12:16:05;;;;;;;5.35;3.15;;;8.40;85.40;;;;;;5022955;28;20072;-75
2021/03/21 12:18:34;;;;;;;4.97;2.90;;;8.60;84.50;;;;;;5020453;28;20029;-75
2021/03/21 12:21:12;;;;;;;6.15;3.25;;;8.60;83.90;;;;;;5020098;28;20044;-75
2021/03/21 12:23:50;;;;;;;7.05;3.65;;;8.60;84.10;;;;;;5033770;28;20037;-75
2021/03/21 12:26:20;;;;;;;5.35;3.67;;;8.70;83.50;;;;;;5022655;28;20034;-75
2021/03/21 12:28:57;;;;;;;6.25;3.80;;;8.90;85.20;;;;;;5015779;28;20033;-75
2021/03/21 12:31:31;;;;;;;6.55;4.07;;;8.80;82.20;;;;;;5015126;28;20049;-75
2021/03/21 12:33:59;;;;;;;7.60;3.78;;;8.60;82.40;;;;;;5014786;28;20463;-75
2021/03/21 12:36:29;;;;;;;5.60;3.80;;;8.40;80.70;;;;;;5029467;28;20045;-75
2021/03/21 12:39:28;;;;;;;6.70;4.13;;;8.40;81.60;;;;;;5020387;28;20021;-75
2021/03/21 12:41:55;;;;;;;5.70;4.32;;;8.40;81.70;;;;;;5015639;28;20048;-75
2021/03/21 12:44:30;;;;;;;7.78;4.32;;;8.60;81.30;;;;;;5029497;28;20053;-75
2021/03/21 12:47:15;;;;;;;6.82;4.88;;;8.80;79.90;;;;;;5031821;28;20036;-74
2021/03/21 12:49:46;;;;;;;7.32;5.35;;;8.80;78.20;;;;;;5027599;28;20034;-74
2021/03/21 12:52:21;;;;;;;8.32;4.47;;;8.70;78.00;;;;;;5026808;28;20041;-75
2021/03/21 12:54:48;;;;;;;8.85;4.93;;;8.70;77.70;;;;;;5029104;28;20488;-74
2021/03/21 12:57:15;;;;;;;6.43;4.68;;;8.90;78.00;;;;;;5016650;28;20029;-75
2021/03/21 12:59:45;;;;;;;5.32;4.30;;;8.90;77.70;;;;;;5026274;28;20037;-76
2021/03/21 13:02:31;;;;;;;5.70;3.55;;;8.90;76.90;;;;;;5016043;28;20055;-75
2021/03/21 13:04:59;;;;;;;6.93;5.07;;;8.90;76.60;;;;;;5015599;28;20026;-75
2021/03/21 13:07:28;;;;;;;6.75;5.10;;;8.80;76.20;;;;;;5017095;28;20037;-76
2021/03/21 13:09:55;;;;;;;6.80;4.88;;;8.70;76.30;;;;;;5015917;28;20764;-76
2021/03/21 13:12:22;;;;;;;6.43;4.60;;;8.70;75.40;;;;;;5028827;28;20037;-76
2021/03/21 13:14:49;;;;;;;8.60;4.82;;;8.90;75.30;;;;;;5027563;28;20463;-76
2021/03/21 13:17:17;;;;;;;7.80;4.95;;;8.90;74.50;;;;;;5028115;28;20025;-74
2021/03/21 13:19:43;;;;;;;6.85;5.07;;;8.90;73.60;;;;;;5028150;28;20030;-75
2021/03/21 13:22:10;;;;;;;7.10;4.93;;;8.90;73.00;;;;;;5014245;28;20042;-75
2021/03/21 13:24:37;;;;;;;7.10;5.20;;;8.90;72.40;;;;;;5014628;28;20038;-76
2021/03/21 13:27:04;;;;;;;5.53;4.55;;;9.10;72.40;;;;;;5014477;28;20460;-76
2021/03/21 13:29:31;;;;;;;6.22;4.38;;;9.10;72.30;;;;;;5019889;28;20030;-76
2021/03/21 13:31:57;;;;;;;5.57;3.80;;;9.30;71.70;;;;;;5026492;28;20037;-75
2021/03/21 13:34:31;;;;;;;5.32;3.10;;;9.30;70.00;;;;;;5015420;28;20034;-75
2021/03/21 13:37:00;;;;;;;5.43;3.47;;;9.40;68.40;;;;;;5013849;28;20034;-75
2021/03/21 13:39:27;;;;;;;4.28;2.80;;;9.60;68.30;;;;;;5014213;28;20471;-74
2021/03/21 13:41:53;;;;;;;4.35;2.88;;;9.70;66.50;;;;;;5020406;28;20030;-74
2021/03/21 13:44:19;;;;;;;3.58;2.80;;;10.00;66.60;;;;;;5032625;28;20037;-75
2021/03/21 13:46:47;;;;;;;3.95;2.70;;;10.20;65.20;;;;;;5027347;28;20053;-75
2021/03/21 13:49:14;;;;;;;4.35;2.65;;;10.20;64.20;;;;;;5024610;28;20041;-74